createdAt,value
2022-10-28T00:01:24.674Z,16.83
2022-10-28T00:03:54.641Z,16.77
2022-10-28T00:06:24.626Z,16.77
2022-10-28T00:08:52.547Z,16.73
2022-10-28T00:11:23.210Z,16.74
2022-10-28T00:13:53.979Z,16.67
2022-10-28T00:16:26.507Z,16.64
2022-10-28T00:18:55.124Z,16.63
2022-10-28T00:21:25.361Z,16.62
2022-10-28T00:23:53.508Z,16.60
2022-10-28T00:26:23.081Z,16.62
2022-10-28T00:28:53.255Z,16.63
2022-10-28T00:31:24.654Z,16.62
2022-10-28T00:33:53.285Z,16.62
2022-10-28T00:36:23.464Z,16.57
2022-10-28T00:38:52.783Z,16.52
2022-10-28T00:41:23.106Z,16.53
2022-10-28T00:43:53.159Z,16.46
2022-10-28T00:46:29.568Z,16.44
2022-10-28T00:49:02.799Z,16.41
2022-10-28T00:51:34.627Z,16.42
2022-10-28T00:54:04.207Z,16.43
2022-10-28T00:56:35.387Z,16.39
2022-10-28T00:59:08.461Z,16.37
2022-10-28T01:01:37.788Z,16.30
2022-10-28T01:04:05.985Z,16.27
2022-10-28T01:06:33.916Z,16.24
2022-10-28T01:09:01.824Z,16.23
2022-10-28T01:11:43.371Z,16.27
2022-10-28T01:14:21.644Z,16.32
2022-10-28T01:17:04.770Z,16.33
2022-10-28T01:20:20.336Z,16.39
2022-10-28T01:22:56.710Z,16.48
2022-10-28T01:25:58.153Z,16.49
2022-10-28T01:29:02.962Z,16.53
2022-10-28T01:31:41.402Z,16.55
2022-10-28T01:34:19.854Z,16.59
2022-10-28T01:36:59.012Z,16.60
2022-10-28T01:39:33.815Z,16.60
2022-10-28T01:42:16.222Z,16.59
2022-10-28T01:44:50.384Z,16.57
2022-10-28T01:47:24.070Z,16.50
2022-10-28T01:49:57.409Z,16.52
2022-10-28T01:52:28.649Z,16.46
2022-10-28T01:55:05.507Z,16.45
2022-10-28T01:57:37.181Z,16.44
2022-10-28T02:00:06.879Z,16.46
2022-10-28T02:02:38.513Z,16.44
2022-10-28T02:05:28.388Z,16.44
2022-10-28T02:08:01.784Z,16.44
2022-10-28T02:10:38.706Z,16.42
2022-10-28T02:13:13.109Z,16.38
2022-10-28T02:15:47.144Z,16.36
2022-10-28T02:18:28.420Z,16.41
2022-10-28T02:21:03.514Z,16.41
2022-10-28T02:23:43.500Z,16.45
2022-10-28T02:26:18.936Z,16.46
2022-10-28T02:28:51.715Z,16.50
2022-10-28T02:31:24.788Z,16.55
2022-10-28T02:33:58.285Z,16.57
2022-10-28T02:36:29.830Z,16.56
2022-10-28T02:39:00.685Z,16.53
2022-10-28T02:41:34.699Z,16.50
2022-10-28T02:44:10.139Z,16.50
2022-10-28T02:46:40.963Z,16.44
2022-10-28T02:49:13.656Z,16.38
2022-10-28T02:51:45.949Z,16.36
2022-10-28T02:54:17.169Z,16.37
2022-10-28T02:56:52.697Z,16.32
2022-10-28T02:59:20.810Z,16.28
2022-10-28T03:01:48.848Z,16.22
2022-10-28T03:04:18.579Z,16.22
2022-10-28T03:06:46.562Z,16.22
2022-10-28T03:09:14.557Z,16.20
2022-10-28T03:11:42.604Z,16.16
2022-10-28T03:14:13.172Z,16.16
2022-10-28T03:16:43.556Z,16.18
2022-10-28T03:19:11.493Z,16.23
2022-10-28T03:21:40.727Z,16.26
2022-10-28T03:24:09.060Z,16.31
2022-10-28T03:26:37.073Z,16.27
2022-10-28T03:29:05.119Z,16.28
2022-10-28T03:31:33.175Z,16.31
2022-10-28T03:34:01.059Z,16.34
2022-10-28T03:36:29.053Z,16.34
2022-10-28T03:38:58.532Z,16.36
2022-10-28T03:41:26.463Z,16.42
2022-10-28T03:43:54.407Z,16.43
2022-10-28T03:46:22.585Z,16.42
2022-10-28T03:48:50.494Z,16.48
2022-10-28T03:51:18.794Z,16.51
2022-10-28T03:53:46.860Z,16.53
2022-10-28T03:56:16.222Z,16.55
2022-10-28T03:58:44.196Z,16.57
2022-10-28T04:01:12.412Z,16.57
2022-10-28T04:03:40.424Z,16.62
2022-10-28T04:06:10.092Z,16.64
2022-10-28T04:08:38.264Z,16.66
2022-10-28T04:11:06.461Z,16.65
2022-10-28T04:13:36.052Z,16.70
2022-10-28T04:16:04.355Z,16.69
2022-10-28T04:18:32.320Z,16.65
2022-10-28T04:21:00.280Z,16.58
2022-10-28T04:23:29.395Z,16.60
2022-10-28T04:25:57.435Z,16.59
2022-10-28T04:28:25.437Z,16.60
2022-10-28T04:30:54.871Z,16.59
2022-10-28T04:33:22.809Z,16.60
2022-10-28T04:35:50.929Z,16.63
2022-10-28T04:38:18.978Z,16.62
2022-10-28T04:40:49.115Z,16.57
2022-10-28T04:43:17.033Z,16.54
2022-10-28T04:45:47.000Z,16.53
2022-10-28T04:48:16.303Z,16.52
2022-10-28T04:50:44.863Z,16.47
2022-10-28T04:53:23.073Z,16.50
2022-10-28T04:55:50.899Z,16.48
2022-10-28T04:58:18.767Z,16.49
2022-10-28T05:00:46.803Z,16.46
2022-10-28T05:03:14.706Z,16.47
2022-10-28T05:05:42.863Z,16.47
2022-10-28T05:08:10.785Z,16.44
2022-10-28T05:10:40.070Z,16.40
2022-10-28T05:13:07.947Z,16.37
2022-10-28T05:15:35.829Z,16.31
2022-10-28T05:18:03.823Z,16.37
2022-10-28T05:20:31.713Z,16.36
2022-10-28T05:22:59.793Z,16.36
2022-10-28T05:25:27.946Z,16.41
2022-10-28T05:27:59.510Z,16.43
2022-10-28T05:30:27.969Z,16.40
2022-10-28T05:33:01.321Z,16.40
2022-10-28T05:35:29.579Z,16.40
2022-10-28T05:37:57.961Z,16.36
2022-10-28T05:40:26.444Z,16.36
2022-10-28T05:42:54.574Z,16.31
2022-10-28T05:45:24.048Z,16.25
2022-10-28T05:47:52.773Z,16.22
2022-10-28T05:50:21.810Z,16.19
2022-10-28T05:52:50.848Z,16.14
2022-10-28T05:55:20.618Z,16.09
2022-10-28T05:57:48.928Z,16.09
2022-10-28T06:00:18.595Z,16.09
2022-10-28T06:02:48.149Z,16.10
2022-10-28T06:05:16.463Z,16.10
2022-10-28T06:07:44.394Z,16.09
2022-10-28T06:10:13.116Z,16.11
2022-10-28T06:12:39.555Z,16.11
2022-10-28T06:15:08.502Z,16.08
2022-10-28T06:17:36.403Z,16.06
2022-10-28T06:20:06.800Z,16.05
2022-10-28T06:22:35.026Z,16.06
2022-10-28T06:25:06.237Z,16.02
2022-10-28T06:27:34.405Z,16.02
2022-10-28T06:30:02.586Z,15.98
2022-10-28T06:32:31.169Z,15.99
2022-10-28T06:34:59.535Z,15.95
2022-10-28T06:37:28.944Z,15.98
2022-10-28T06:39:59.088Z,16.00
2022-10-28T06:42:27.152Z,16.03
2022-10-28T06:44:56.560Z,16.07
2022-10-28T06:47:26.949Z,16.09
2022-10-28T06:49:55.235Z,16.12
2022-10-28T06:52:23.143Z,16.15
2022-10-28T06:54:52.515Z,16.17
2022-10-28T06:57:20.695Z,16.20
2022-10-28T06:59:49.981Z,16.21
2022-10-28T07:02:18.057Z,16.23
2022-10-28T07:04:46.766Z,16.25
2022-10-28T07:07:15.156Z,16.25
2022-10-28T07:09:45.067Z,16.30
2022-10-28T07:12:14.891Z,16.37
2022-10-28T07:14:43.661Z,16.40
2022-10-28T07:17:11.767Z,16.43
2022-10-28T07:19:40.204Z,16.47
2022-10-28T07:22:08.086Z,16.51
2022-10-28T07:24:36.055Z,16.54
2022-10-28T07:27:04.127Z,16.59
2022-10-28T07:29:33.461Z,16.62
2022-10-28T07:32:01.357Z,16.65
2022-10-28T07:34:29.319Z,16.69
2022-10-28T07:36:57.733Z,16.70
2022-10-28T07:39:26.029Z,16.72
2022-10-28T07:41:54.105Z,16.78
2022-10-28T07:44:22.175Z,16.83
2022-10-28T07:46:54.313Z,16.89
2022-10-28T07:49:25.276Z,16.92
2022-10-28T07:51:53.351Z,16.98
2022-10-28T07:54:21.289Z,17.03
2022-10-28T07:56:49.270Z,17.06
2022-10-28T07:59:17.352Z,17.13
2022-10-28T08:01:45.479Z,17.20
2022-10-28T08:04:14.952Z,17.25
2022-10-28T08:06:44.452Z,17.24
2022-10-28T08:09:12.396Z,17.30
2022-10-28T08:11:40.334Z,17.33
2022-10-28T08:14:08.349Z,17.42
2022-10-28T08:16:36.295Z,17.49
2022-10-28T08:19:07.624Z,17.58
2022-10-28T08:21:37.433Z,17.61
2022-10-28T08:24:05.618Z,17.66
2022-10-28T08:26:33.570Z,17.69
2022-10-28T08:29:02.174Z,17.73
2022-10-28T08:31:30.183Z,17.84
2022-10-28T08:33:58.091Z,17.92
2022-10-28T08:36:26.091Z,17.97
2022-10-28T08:38:55.902Z,18.06
2022-10-28T08:41:32.581Z,18.13
2022-10-28T08:44:21.527Z,18.13
2022-10-28T08:47:02.621Z,18.17
2022-10-28T08:49:35.011Z,18.32
2022-10-28T08:52:09.509Z,18.37
2022-10-28T08:54:47.338Z,18.42
2022-10-28T08:57:19.780Z,18.45
2022-10-28T08:59:52.121Z,18.52
2022-10-28T09:02:23.306Z,18.59
2022-10-28T09:04:58.131Z,18.64
2022-10-28T09:07:26.605Z,18.72
2022-10-28T09:09:59.857Z,18.77
2022-10-28T09:12:39.614Z,18.87
2022-10-28T09:15:24.430Z,18.94
2022-10-28T09:17:55.378Z,18.97
2022-10-28T09:20:34.185Z,19.00
2022-10-28T09:23:10.649Z,19.08
2022-10-28T09:25:49.015Z,19.13
2022-10-28T09:28:31.329Z,19.18
2022-10-28T09:31:04.559Z,19.24
2022-10-28T09:33:55.837Z,19.29
2022-10-28T09:36:30.596Z,19.32
2022-10-28T09:39:00.926Z,19.37
2022-10-28T09:41:34.961Z,19.39
2022-10-28T09:44:12.694Z,19.44
2022-10-28T09:46:41.911Z,19.54
2022-10-28T09:49:15.722Z,19.64
2022-10-28T09:51:49.731Z,19.67
2022-10-28T09:54:18.645Z,19.75
2022-10-28T09:56:48.053Z,19.78
2022-10-28T09:59:17.561Z,19.86
2022-10-28T10:01:47.870Z,19.90
2022-10-28T10:04:21.461Z,19.96
2022-10-28T10:06:53.302Z,20.04
2022-10-28T10:09:24.960Z,20.11
2022-10-28T10:11:57.135Z,20.14
2022-10-28T10:14:30.046Z,20.23
2022-10-28T10:17:01.445Z,20.31
2022-10-28T10:19:29.518Z,20.38
2022-10-28T10:21:58.732Z,20.40
2022-10-28T10:24:32.066Z,20.44
2022-10-28T10:27:05.159Z,20.42
2022-10-28T10:29:33.833Z,20.42
2022-10-28T10:32:19.059Z,20.46
2022-10-28T10:34:55.415Z,20.52
2022-10-28T10:37:24.944Z,20.57
2022-10-28T10:40:06.635Z,20.63
2022-10-28T10:42:42.695Z,20.66
2022-10-28T10:45:25.913Z,20.71
2022-10-28T10:48:15.031Z,20.78
2022-10-28T10:50:45.342Z,20.81
2022-10-28T10:53:24.038Z,20.85
2022-10-28T10:55:55.460Z,20.93
2022-10-28T10:58:27.785Z,20.98
2022-10-28T11:00:58.327Z,21.06
2022-10-28T11:03:29.532Z,21.18
2022-10-28T11:06:22.008Z,21.26
2022-10-28T11:08:47.217Z,21.35
2022-10-28T11:11:20.029Z,21.45
2022-10-28T11:14:03.288Z,21.59
2022-10-28T11:16:31.553Z,21.66
2022-10-28T11:18:59.579Z,21.71
2022-10-28T11:21:48.070Z,21.84
2022-10-28T11:24:31.498Z,21.94
2022-10-28T11:27:10.430Z,21.95
2022-10-28T11:29:40.237Z,21.99
2022-10-28T11:33:01.328Z,22.07
2022-10-28T11:35:43.616Z,22.16
2022-10-28T11:38:24.569Z,22.14
2022-10-28T11:41:07.794Z,22.24
2022-10-28T11:43:48.633Z,22.30
2022-10-28T11:46:27.961Z,22.31
2022-10-28T11:49:10.867Z,22.38
2022-10-28T11:51:47.107Z,22.43
2022-10-28T11:54:29.527Z,22.44
2022-10-28T11:57:04.349Z,22.45
2022-10-28T12:00:02.989Z,22.40
2022-10-28T12:02:57.159Z,22.38
2022-10-28T12:05:32.012Z,22.37
2022-10-28T12:08:22.858Z,22.32
2022-10-28T12:11:08.668Z,22.40
2022-10-28T12:13:45.899Z,22.48
2022-10-28T12:16:19.652Z,22.57
2022-10-28T12:18:55.959Z,22.69
2022-10-28T12:21:32.758Z,22.83
2022-10-28T12:24:01.604Z,22.86
2022-10-28T12:26:38.958Z,22.84
2022-10-28T12:29:15.067Z,22.76
2022-10-28T12:31:47.542Z,22.70
2022-10-28T12:34:24.588Z,22.66
2022-10-28T12:36:58.383Z,22.60
2022-10-28T12:39:32.446Z,22.59
2022-10-28T12:42:06.257Z,22.52
2022-10-28T12:44:37.873Z,22.53
2022-10-28T12:47:18.952Z,22.54
2022-10-28T12:50:01.505Z,22.52
2022-10-28T12:52:39.596Z,22.53
2022-10-28T12:55:31.015Z,22.60
2022-10-28T12:58:04.888Z,22.77
2022-10-28T13:00:38.296Z,22.81
2022-10-28T13:03:08.823Z,22.77
2022-10-28T13:05:45.246Z,22.72
2022-10-28T13:08:39.470Z,22.77
2022-10-28T13:11:45.315Z,22.79
2022-10-28T13:14:29.991Z,22.74
2022-10-28T13:17:19.756Z,22.83
2022-10-28T13:20:22.556Z,22.89
2022-10-28T13:23:11.937Z,22.90
2022-10-28T13:25:54.877Z,22.98
2022-10-28T13:28:30.662Z,23.03
2022-10-28T13:31:00.821Z,23.11
2022-10-28T13:33:30.869Z,23.14
2022-10-28T13:36:11.829Z,23.14
2022-10-28T13:38:41.725Z,23.07
2022-10-28T13:41:28.363Z,23.11
2022-10-28T13:44:27.228Z,23.09
2022-10-28T13:47:26.483Z,23.00
2022-10-28T13:50:15.628Z,22.98
2022-10-28T13:52:45.541Z,22.93
2022-10-28T13:55:25.090Z,22.90
2022-10-28T13:58:00.253Z,22.83
2022-10-28T14:00:38.911Z,22.77
2022-10-28T14:03:17.852Z,22.71
2022-10-28T14:05:55.209Z,22.63
2022-10-28T14:08:29.476Z,22.60
2022-10-28T14:11:05.326Z,22.56
2022-10-28T14:13:36.935Z,22.56
2022-10-28T14:16:22.910Z,22.58
2022-10-28T14:19:01.439Z,22.52
2022-10-28T14:21:45.912Z,22.49
2022-10-28T14:24:30.766Z,22.49
2022-10-28T14:27:30.823Z,22.48
2022-10-28T14:30:24.211Z,22.44
2022-10-28T14:33:20.613Z,22.35
2022-10-28T14:35:53.169Z,22.30
2022-10-28T14:38:50.836Z,22.27
2022-10-28T14:41:36.696Z,22.28
2022-10-28T14:44:25.126Z,22.25
2022-10-28T14:47:08.300Z,22.24
2022-10-28T14:49:38.031Z,22.24
2022-10-28T14:52:08.996Z,22.22
2022-10-28T14:54:44.845Z,22.19
2022-10-28T14:57:12.874Z,22.15
2022-10-28T14:59:45.502Z,22.08
2022-10-28T15:02:17.443Z,22.01
2022-10-28T15:04:47.575Z,21.95
2022-10-28T15:07:17.590Z,21.90
2022-10-28T15:09:48.837Z,21.85
2022-10-28T15:12:19.074Z,21.78
2022-10-28T15:14:50.881Z,21.74
2022-10-28T15:17:20.678Z,21.70
2022-10-28T15:19:50.432Z,21.63
2022-10-28T15:22:21.705Z,21.56
2022-10-28T15:25:00.784Z,21.51
2022-10-28T15:27:31.830Z,21.40
2022-10-28T15:30:01.398Z,21.36
2022-10-28T15:32:32.343Z,21.31
2022-10-28T15:35:01.028Z,21.24
2022-10-28T15:37:31.379Z,21.18
2022-10-28T15:40:20.509Z,21.09
2022-10-28T15:42:53.618Z,21.03
2022-10-28T15:45:26.073Z,20.97
2022-10-28T15:47:55.272Z,20.91
2022-10-28T15:50:32.539Z,20.85
2022-10-28T15:53:23.445Z,20.81
2022-10-28T15:56:10.677Z,20.73
2022-10-28T15:58:40.685Z,20.67
2022-10-28T16:01:28.987Z,20.62
2022-10-28T16:03:57.312Z,20.55
2022-10-28T16:06:31.030Z,20.53
2022-10-28T16:09:05.550Z,20.49
2022-10-28T16:11:36.551Z,20.44
2022-10-28T16:14:14.881Z,20.38
2022-10-28T16:16:45.042Z,20.31
2022-10-28T16:19:26.936Z,20.29
2022-10-28T16:21:54.951Z,20.21
2022-10-28T16:24:22.836Z,20.17
2022-10-28T16:26:50.927Z,20.16
2022-10-28T16:29:18.923Z,20.13
2022-10-28T16:31:52.199Z,20.14
2022-10-28T16:34:20.360Z,20.12
2022-10-28T16:36:48.274Z,20.09
2022-10-28T16:39:16.369Z,20.09
2022-10-28T16:41:44.350Z,20.09
2022-10-28T16:44:17.920Z,20.10
2022-10-28T16:46:45.852Z,20.09
2022-10-28T16:49:15.216Z,20.07
2022-10-28T16:51:45.026Z,20.08
2022-10-28T16:54:13.040Z,20.09
2022-10-28T16:56:40.879Z,20.07
2022-10-28T16:59:08.869Z,20.05
2022-10-28T17:01:36.955Z,20.02
2022-10-28T17:04:05.245Z,19.98
2022-10-28T17:06:39.121Z,19.93
2022-10-28T17:09:07.474Z,19.89
2022-10-28T17:11:35.469Z,19.85
2022-10-28T17:14:04.047Z,19.80
2022-10-28T17:16:31.966Z,19.79
2022-10-28T17:19:00.075Z,19.82
2022-10-28T17:21:27.966Z,19.83
2022-10-28T17:23:57.224Z,19.84
2022-10-28T17:26:25.067Z,19.83
2022-10-28T17:28:53.895Z,19.85
2022-10-28T17:31:24.878Z,19.86
2022-10-28T17:33:55.187Z,19.87
2022-10-28T17:36:24.237Z,19.88
2022-10-28T17:38:52.101Z,19.91
2022-10-28T17:41:21.726Z,19.94
2022-10-28T17:43:52.958Z,19.91
2022-10-28T17:46:21.517Z,20.04
2022-10-28T17:48:49.867Z,20.18
2022-10-28T17:51:20.187Z,20.33
2022-10-28T17:53:48.368Z,20.42
2022-10-28T17:56:16.398Z,20.52
2022-10-28T17:58:45.684Z,20.64
2022-10-28T18:01:13.885Z,20.71
2022-10-28T18:03:41.943Z,20.82
2022-10-28T18:06:13.450Z,20.86
2022-10-28T18:08:43.972Z,20.86
2022-10-28T18:11:14.431Z,20.94
2022-10-28T18:13:46.094Z,20.93
2022-10-28T18:16:15.640Z,20.99
2022-10-28T18:18:44.058Z,21.02
2022-10-28T18:21:15.745Z,21.05
2022-10-28T18:23:43.675Z,21.09
2022-10-28T18:26:13.585Z,21.07
2022-10-28T18:28:43.508Z,21.06
2022-10-28T18:31:15.198Z,21.09
2022-10-28T18:33:45.285Z,21.10
2022-10-28T18:36:15.215Z,21.12
2022-10-28T18:38:43.321Z,21.18
2022-10-28T18:41:12.456Z,21.21
2022-10-28T18:43:40.598Z,21.20
2022-10-28T18:46:09.378Z,21.20
2022-10-28T18:48:38.717Z,21.16
2022-10-28T18:51:09.523Z,21.14
2022-10-28T18:53:38.587Z,21.13
2022-10-28T18:56:07.547Z,21.08
2022-10-28T18:58:35.963Z,21.03
2022-10-28T19:01:09.050Z,21.04
2022-10-28T19:03:39.298Z,20.97
2022-10-28T19:06:09.475Z,20.96
2022-10-28T19:08:37.743Z,20.95
2022-10-28T19:11:06.887Z,20.87
2022-10-28T19:13:36.688Z,20.89
2022-10-28T19:16:05.568Z,20.89
2022-10-28T19:18:35.652Z,20.85
2022-10-28T19:21:07.676Z,20.87
2022-10-28T19:23:35.831Z,20.84
2022-10-28T19:26:04.886Z,20.79
2022-10-28T19:28:39.476Z,20.68
2022-10-28T19:31:09.838Z,20.67
2022-10-28T19:33:39.362Z,20.64
2022-10-28T19:36:11.735Z,20.58
2022-10-28T19:38:39.935Z,20.55
2022-10-28T19:41:10.197Z,20.49
2022-10-28T19:43:38.428Z,20.48
2022-10-28T19:46:09.841Z,20.41
2022-10-28T19:48:38.431Z,20.42
2022-10-28T19:51:06.951Z,20.29
2022-10-28T19:53:38.874Z,20.30
2022-10-28T19:56:07.275Z,20.26
2022-10-28T19:58:36.492Z,20.22
2022-10-28T20:01:07.185Z,20.20
2022-10-28T20:03:36.889Z,20.13
2022-10-28T20:06:08.514Z,20.10
2022-10-28T20:08:39.288Z,20.10
2022-10-28T20:11:08.860Z,20.05
2022-10-28T20:13:37.754Z,20.06
2022-10-28T20:16:08.107Z,20.14
2022-10-28T20:18:36.010Z,20.12
2022-10-28T20:21:05.555Z,20.13
2022-10-28T20:23:35.747Z,20.10
2022-10-28T20:26:05.685Z,20.14
2022-10-28T20:28:34.008Z,20.18
2022-10-28T20:31:03.472Z,20.24
2022-10-28T20:33:32.069Z,20.29
2022-10-28T20:36:00.360Z,20.32
2022-10-28T20:38:29.202Z,20.28
2022-10-28T20:40:58.650Z,20.29
2022-10-28T20:43:29.977Z,20.29
2022-10-28T20:45:59.790Z,20.23
2022-10-28T20:48:28.833Z,20.25
2022-10-28T20:50:58.661Z,20.20
2022-10-28T20:53:28.752Z,20.18
2022-10-28T20:55:58.483Z,20.18
2022-10-28T20:58:29.894Z,20.13
2022-10-28T21:01:03.768Z,20.17
2022-10-28T21:03:31.918Z,20.12
2022-10-28T21:06:00.228Z,20.10
2022-10-28T21:08:28.221Z,20.05
2022-10-28T21:10:56.289Z,20.03
2022-10-28T21:13:24.130Z,20.04
2022-10-28T21:15:56.601Z,20.00
2022-10-28T21:18:26.615Z,19.98
2022-10-28T21:20:57.548Z,20.09
2022-10-28T21:23:26.312Z,19.97
2022-10-28T21:25:54.745Z,19.91
2022-10-28T21:28:23.105Z,19.88
2022-10-28T21:30:51.366Z,19.84
2022-10-28T21:33:20.527Z,19.75
2022-10-28T21:35:55.947Z,19.71
2022-10-28T21:38:23.850Z,19.68
2022-10-28T21:40:59.859Z,19.59
2022-10-28T21:43:29.467Z,19.59
2022-10-28T21:45:57.642Z,19.52
2022-10-28T21:48:28.092Z,19.56
2022-10-28T21:50:57.428Z,19.50
2022-10-28T21:53:25.769Z,19.49
2022-10-28T21:55:55.635Z,19.55
2022-10-28T21:58:23.613Z,19.53
2022-10-28T22:00:51.758Z,19.56
2022-10-28T22:03:19.904Z,19.59
2022-10-28T22:05:52.515Z,19.53
2022-10-28T22:08:20.622Z,19.52
2022-10-28T22:10:48.521Z,19.55
2022-10-28T22:13:16.399Z,19.58
2022-10-28T22:15:44.309Z,19.48
2022-10-28T22:18:12.199Z,19.57
2022-10-28T22:20:40.148Z,19.60
2022-10-28T22:23:09.547Z,19.60
2022-10-28T22:25:37.459Z,19.63
2022-10-28T22:28:05.889Z,19.61
2022-10-28T22:30:33.972Z,19.53
2022-10-28T22:33:01.891Z,19.47
2022-10-28T22:35:29.913Z,19.45
2022-10-28T22:37:58.543Z,19.50
2022-10-28T22:40:29.433Z,19.48
2022-10-28T22:42:57.258Z,19.43
2022-10-28T22:45:25.120Z,19.38
2022-10-28T22:47:53.388Z,19.37
2022-10-28T22:50:21.737Z,19.29
2022-10-28T22:52:49.695Z,19.26
2022-10-28T22:55:17.685Z,19.18
2022-10-28T22:57:47.086Z,19.04
2022-10-28T23:00:15.769Z,18.97
2022-10-28T23:02:43.809Z,18.94
2022-10-28T23:05:11.895Z,18.91
2022-10-28T23:07:39.965Z,18.79
2022-10-28T23:10:08.750Z,18.77
2022-10-28T23:12:36.649Z,18.74
2022-10-28T23:15:06.944Z,18.76
2022-10-28T23:17:34.846Z,18.78
2022-10-28T23:20:02.768Z,18.84
2022-10-28T23:22:30.828Z,18.89
2022-10-28T23:24:58.656Z,18.88
2022-10-28T23:27:26.500Z,18.89
2022-10-28T23:29:54.688Z,18.84
2022-10-28T23:32:23.903Z,18.77
2022-10-28T23:34:51.734Z,18.63
2022-10-28T23:37:19.786Z,18.60
2022-10-28T23:39:47.593Z,18.48
2022-10-28T23:42:15.476Z,18.49
2022-10-28T23:44:43.444Z,18.42
2022-10-28T23:47:11.296Z,18.43
2022-10-28T23:49:40.718Z,18.39
2022-10-28T23:52:08.691Z,18.32
2022-10-28T23:54:37.246Z,18.31
2022-10-28T23:57:05.187Z,18.33
2022-10-28T23:59:33.160Z,18.31
